Mount Baldy, California
Current Conditions -  °F | °C
As of 8:53 AM on Thursday 30 Oct 2014 (Local Time) from KONT Reporting Station
Broken Clouds Broken Clouds  
Wind Chill: 66°   Ceiling: 25000
Heat Index: 66°   Visibility: 10mi
Dew Point: 46°   Wind: 0mph
Humidity: 48%   Direction: NA
Pressure: 30.01"   Gusts: NA
Location:  34.24°N, 117.66°W
Report Text: KONT 301553Z 00000KT 10SM FEW180 BKN250 19/08 A3001 RMK AO2 SLP153 T01890078
Loading
Personal Weather Stations






























Interactive Weather Map
Tropical Storm Tracking
New forecast layout! Learn more

10-Day Weather Forecast

Advertisements
Track Severe Weather on mobile